Portada
METAR-TAF:

METAR-TAF

Aeropuertos :

Alhucemas, Marruecos

Aeropuerto Cherif Al Idrissi

latitud: 35-11N, longitud: 003-51W, altitud: 27 m

Observación

El informe se hizo hace 42 minutos, a las 22:00 UTC
Viento 2 kt del oeste
Temperatura 25°C
Humedad 54%
Presión 1015 hPa
Visibilidad 10 km o más
sin nubes por debajo de 1500 m y sin presencia de cumulonimbus.

METAR: GMTA 222200Z 26002KT CAVOK 25/15 Q1015 NOSIG

Hora: 23:42 (22:42 UTC)

Pronóstico

El informe se hizo hace 5 horas y 42 minutos, a las 17:00 UTC
Pronóstico válido del 22 a las 18 UTC al 23 a las 24 UTC
Viento 6 kt del norte-noreste
Visibilidad 10 km o más
sin nubes por debajo de 1500 m y sin presencia de cumulonimbus.

TAF: GMTA 221700Z 2218/2324 02006KT CAVOK

Observaciones y pronósticos meteorológicos de más de 4000 aeropuertos (mensajes METAR y TAF).

Los puntos amarillos y rojos representan las estaciones disponibles.

Ponga el ratón en el punto deseado para ver el nombre de la estación.

Haga clic para ver las observaciones y los pronósticos meteorológicos.

Para cambiar el mapa : haga clic en los botones verdes con una cruz de color negro para hacer un zoom, en el botón verde con un guión para alejar o en las flechas verdes para mapas adyacentes.


METAR-TAF: